Weather at Sremska Mitrovica / Veliki Radinci Airfield

Public forecast

Using degrees Celsius for public forecast. Weather courtesy of forecast.io.

Closest aviation weather report (METAR) to Sremska Mitrovica / Veliki Radinci Airfield

Closest report is Batajnica Air Base, 26.1 nm (48.3 km) ESE.

2024/04/21 20:00 (retrieved 12 minutes ago)

LYBT 212000Z 27006KT 9999 -RA BKN045 09/06 Q1014 NOSIG

Closest aviation forecast (TAF) to Sremska Mitrovica / Veliki Radinci Airfield

Closest forecast is Batajnica Air Base, 26.1 nm (48.3 km) ESE.

2024/04/21 18:00 (retrieved 2 hours ago)

TAF LYBT 211700Z 2118/2218 24005KT 9999 SCT040 TX14/2213Z TN05/2204Z TEMPO 2203/2206 4000 BR